createdAt,value
2023-04-27T00:01:24.311Z,82.74
2023-04-27T00:03:57.786Z,82.85
2023-04-27T00:06:26.763Z,82.41
2023-04-27T00:09:07.569Z,82.72
2023-04-27T00:11:54.569Z,82.57
2023-04-27T00:14:28.778Z,82.52
2023-04-27T00:17:02.627Z,82.72
2023-04-27T00:19:37.580Z,82.88
2023-04-27T00:22:10.619Z,83.02
2023-04-27T00:24:37.531Z,82.61
2023-04-27T00:27:10.602Z,82.92
2023-04-27T00:29:37.511Z,83.19
2023-04-27T00:32:12.816Z,83.23
2023-04-27T00:34:39.789Z,83.34
2023-04-27T00:37:13.555Z,83.05
2023-04-27T00:39:47.711Z,83.16
2023-04-27T00:42:24.627Z,83.34
2023-04-27T00:44:51.666Z,83.02
2023-04-27T00:47:25.528Z,83.62
2023-04-27T00:49:53.692Z,83.36
2023-04-27T00:52:20.726Z,83.32
2023-04-27T00:54:58.614Z,83.49
2023-04-27T00:57:25.807Z,83.74
2023-04-27T01:00:07.628Z,83.63
2023-04-27T01:02:35.398Z,83.79
2023-04-27T01:05:09.749Z,83.96
2023-04-27T01:07:43.016Z,83.92
2023-04-27T01:10:16.638Z,83.90
2023-04-27T01:12:57.821Z,84.01
2023-04-27T01:15:31.693Z,84.00
2023-04-27T01:18:02.203Z,83.72
2023-04-27T01:20:37.498Z,84.16
2023-04-27T01:23:04.904Z,84.32
2023-04-27T01:25:38.761Z,84.03
2023-04-27T01:28:12.553Z,83.82
2023-04-27T01:30:45.749Z,84.18
2023-04-27T01:33:19.541Z,84.01
2023-04-27T01:35:46.540Z,84.09
2023-04-27T01:38:20.605Z,84.33
2023-04-27T01:40:47.516Z,84.13
2023-04-27T01:43:20.591Z,84.36
2023-04-27T01:45:48.802Z,84.43
2023-04-27T01:48:22.643Z,84.47
2023-04-27T01:50:49.429Z,84.77
2023-04-27T01:53:22.588Z,84.70
2023-04-27T01:55:55.641Z,84.69
2023-04-27T01:58:22.598Z,84.35
2023-04-27T02:01:01.489Z,84.94
2023-04-27T02:03:34.759Z,84.61
2023-04-27T02:06:08.613Z,84.22
2023-04-27T02:08:35.738Z,84.40
2023-04-27T02:11:09.713Z,84.66
2023-04-27T02:13:43.189Z,84.83
2023-04-27T02:16:16.598Z,85.00
2023-04-27T02:18:50.580Z,84.90
2023-04-27T02:21:17.476Z,84.79
2023-04-27T02:23:50.747Z,85.42
2023-04-27T02:26:19.630Z,85.32
2023-04-27T02:28:56.667Z,85.30
2023-04-27T02:31:24.119Z,85.27
2023-04-27T02:33:57.576Z,85.33
2023-04-27T02:36:24.494Z,85.29
2023-04-27T02:38:57.603Z,85.66
2023-04-27T02:41:24.451Z,85.36
2023-04-27T02:43:58.583Z,85.61
2023-04-27T02:46:25.493Z,86.00
2023-04-27T02:48:59.719Z,85.99
2023-04-27T02:51:27.216Z,85.89
2023-04-27T02:54:00.632Z,85.89
2023-04-27T02:56:27.539Z,85.85
2023-04-27T02:59:00.617Z,85.75
2023-04-27T03:01:27.630Z,85.58
2023-04-27T03:04:00.873Z,85.89
2023-04-27T03:06:34.914Z,85.99
2023-04-27T03:09:01.842Z,85.72
2023-04-27T03:11:41.913Z,85.90
2023-04-27T03:14:15.073Z,85.92
2023-04-27T03:16:51.831Z,85.57
2023-04-27T03:19:18.774Z,85.87
2023-04-27T03:21:51.666Z,86.19
2023-04-27T03:24:18.813Z,86.10
2023-04-27T03:26:52.633Z,85.92
2023-04-27T03:29:19.596Z,86.15
2023-04-27T03:31:52.637Z,86.02
2023-04-27T03:34:21.232Z,85.99
2023-04-27T03:36:54.688Z,85.93
2023-04-27T03:39:21.607Z,86.12
2023-04-27T03:41:54.610Z,86.35
2023-04-27T03:44:27.578Z,86.33
2023-04-27T03:46:54.235Z,86.11
2023-04-27T03:49:27.578Z,86.26
2023-04-27T03:51:54.416Z,86.04
2023-04-27T03:54:29.044Z,86.18
2023-04-27T03:56:56.323Z,86.74
2023-04-27T03:59:29.614Z,86.74
2023-04-27T04:02:00.804Z,86.71
2023-04-27T04:04:35.917Z,86.61
2023-04-27T04:07:06.156Z,86.80
2023-04-27T04:09:39.756Z,86.76
2023-04-27T04:12:13.826Z,86.69
2023-04-27T04:14:55.670Z,86.63
2023-04-27T04:17:22.675Z,86.59
2023-04-27T04:19:49.573Z,86.56
2023-04-27T04:22:22.647Z,86.58
2023-04-27T04:24:49.489Z,86.28
2023-04-27T04:27:22.545Z,86.53
2023-04-27T04:29:49.297Z,86.51
2023-04-27T04:32:25.789Z,86.58
2023-04-27T04:34:52.638Z,86.55
2023-04-27T04:37:19.549Z,86.50
2023-04-27T04:39:52.677Z,86.47
2023-04-27T04:42:25.589Z,86.66
2023-04-27T04:44:52.752Z,86.52
2023-04-27T04:47:25.628Z,86.78
2023-04-27T04:49:52.426Z,86.54
2023-04-27T04:52:25.583Z,86.49
2023-04-27T04:54:53.506Z,86.70
2023-04-27T04:57:20.232Z,86.87
2023-04-27T04:59:53.674Z,86.83
2023-04-27T05:02:21.135Z,86.29
2023-04-27T05:04:54.771Z,86.48
2023-04-27T05:07:24.781Z,86.63
2023-04-27T05:09:58.704Z,86.60
2023-04-27T05:12:31.826Z,86.76
2023-04-27T05:15:12.733Z,86.62
2023-04-27T05:17:39.689Z,85.62
2023-04-27T05:20:15.943Z,85.73
2023-04-27T05:22:42.996Z,84.53
2023-04-27T05:25:16.772Z,84.43
2023-04-27T05:27:43.577Z,85.18
2023-04-27T05:30:17.664Z,85.34
2023-04-27T05:32:50.746Z,85.47
2023-04-27T05:35:24.707Z,85.50
2023-04-27T05:37:51.590Z,85.50
2023-04-27T05:40:24.672Z,85.44
2023-04-27T05:42:51.575Z,85.57
2023-04-27T05:45:18.413Z,85.55
2023-04-27T05:47:51.773Z,85.37
2023-04-27T05:50:18.737Z,85.50
2023-04-27T05:52:52.675Z,85.41
2023-04-27T05:55:19.759Z,85.33
2023-04-27T05:58:06.680Z,84.91
2023-04-27T06:00:35.183Z,84.59
2023-04-27T06:03:08.854Z,84.40
2023-04-27T06:05:42.729Z,83.77
2023-04-27T06:08:15.643Z,83.86
2023-04-27T06:10:42.430Z,83.51
2023-04-27T06:13:22.660Z,83.63
2023-04-27T06:15:50.963Z,83.92
2023-04-27T06:18:24.648Z,83.73
2023-04-27T06:20:51.797Z,83.33
2023-04-27T06:23:24.753Z,82.89
2023-04-27T06:25:57.636Z,82.18
2023-04-27T06:28:24.522Z,81.85
2023-04-27T06:30:57.742Z,82.15
2023-04-27T06:33:24.613Z,81.79
2023-04-27T06:35:58.722Z,81.86
2023-04-27T06:38:25.445Z,81.57
2023-04-27T06:41:00.499Z,81.74
2023-04-27T06:43:27.386Z,81.44
2023-04-27T06:45:54.180Z,80.84
2023-04-27T06:48:28.657Z,81.00
2023-04-27T06:51:01.664Z,80.66
2023-04-27T06:53:34.665Z,80.12
2023-04-27T06:56:08.747Z,79.94
2023-04-27T06:58:35.541Z,79.94
2023-04-27T07:01:02.861Z,79.36
2023-04-27T07:03:36.924Z,79.24
2023-04-27T07:06:10.789Z,79.07
2023-04-27T07:08:44.674Z,78.56
2023-04-27T07:11:16.366Z,78.30
2023-04-27T07:13:56.649Z,78.11
2023-04-27T07:16:23.552Z,77.78
2023-04-27T07:18:56.764Z,76.26
2023-04-27T07:21:23.531Z,76.36
2023-04-27T07:23:56.657Z,75.95
2023-04-27T07:26:30.682Z,76.30
2023-04-27T07:28:57.987Z,76.26
2023-04-27T07:31:31.748Z,76.00
2023-04-27T07:34:07.733Z,75.16
2023-04-27T07:36:34.503Z,75.43
2023-04-27T07:39:07.683Z,74.55
2023-04-27T07:41:34.979Z,73.27
2023-04-27T07:44:08.652Z,73.43
2023-04-27T07:46:41.878Z,72.93
2023-04-27T07:49:08.604Z,73.43
2023-04-27T07:51:41.947Z,70.46
2023-04-27T07:54:09.248Z,70.48
2023-04-27T07:56:42.774Z,71.04
2023-04-27T07:59:16.008Z,71.90
2023-04-27T08:01:44.036Z,70.04
2023-04-27T08:04:18.931Z,68.97
2023-04-27T08:06:47.057Z,67.93
2023-04-27T08:09:20.712Z,67.93
2023-04-27T08:12:00.699Z,67.26
2023-04-27T08:14:43.686Z,66.05
2023-04-27T08:17:11.780Z,66.23
2023-04-27T08:19:45.741Z,64.35
2023-04-27T08:22:18.775Z,64.81
2023-04-27T08:24:51.752Z,65.06
2023-04-27T08:27:18.601Z,65.09
2023-04-27T08:29:55.724Z,65.39
2023-04-27T08:32:22.542Z,64.87
2023-04-27T08:34:55.710Z,62.50
2023-04-27T08:37:22.455Z,60.11
2023-04-27T08:39:55.757Z,60.95
2023-04-27T08:42:22.499Z,60.71
2023-04-27T08:44:55.719Z,61.32
2023-04-27T08:47:34.684Z,60.76
2023-04-27T08:50:14.675Z,57.82
2023-04-27T08:52:45.064Z,59.81
2023-04-27T08:55:18.745Z,58.00
2023-04-27T08:58:02.748Z,59.22
2023-04-27T09:00:44.566Z,57.29
2023-04-27T09:03:31.922Z,56.37
2023-04-27T09:06:05.139Z,55.68
2023-04-27T09:09:09.735Z,55.38
2023-04-27T09:15:30.958Z,49.55
2023-04-27T09:18:28.798Z,52.86
2023-04-27T09:21:10.804Z,49.53
2023-04-27T09:31:12.042Z,48.50
2023-04-27T09:34:23.804Z,48.95
2023-04-27T09:37:25.793Z,48.44
2023-04-27T09:46:24.213Z,47.86
2023-04-27T10:22:24.252Z,39.93
2023-04-27T10:31:27.866Z,37.64
2023-04-27T10:53:23.785Z,36.21
2023-04-27T10:56:26.779Z,40.36
2023-04-27T11:24:24.442Z,35.19
2023-04-27T11:27:21.870Z,34.55
2023-04-27T11:49:21.055Z,31.99
2023-04-27T12:04:25.390Z,33.96
2023-04-27T12:22:22.695Z,32.05
2023-04-27T12:31:21.879Z,33.22
2023-04-27T12:44:21.820Z,31.61
2023-04-27T13:14:27.922Z,32.25
2023-04-27T13:17:14.868Z,33.61
2023-04-27T13:29:11.979Z,32.66
2023-04-27T13:35:05.670Z,31.08
2023-04-27T13:43:24.584Z,30.82
2023-04-27T13:52:20.902Z,30.16
2023-04-27T14:00:29.139Z,32.92
2023-04-27T14:03:19.057Z,32.33
2023-04-27T14:05:50.974Z,35.36
2023-04-27T14:08:33.906Z,33.60
2023-04-27T14:11:13.277Z,30.95
2023-04-27T14:14:19.416Z,31.32
2023-04-27T14:17:01.145Z,31.25
2023-04-27T14:22:24.996Z,30.66
2023-04-27T14:30:17.067Z,32.62
2023-04-27T14:32:43.936Z,32.93
2023-04-27T14:35:19.436Z,31.67
2023-04-27T14:43:20.967Z,32.27
2023-04-27T14:48:59.097Z,32.43
2023-04-27T14:54:22.976Z,33.50
2023-04-27T14:56:52.400Z,32.79
2023-04-27T14:59:25.909Z,32.09
2023-04-27T15:04:38.228Z,33.54
2023-04-27T15:07:22.024Z,32.89
2023-04-27T15:10:06.472Z,33.40
2023-04-27T15:28:03.529Z,34.21
2023-04-27T15:31:03.030Z,35.03
2023-04-27T15:33:29.804Z,35.51
2023-04-27T15:48:37.171Z,33.60
2023-04-27T15:54:17.933Z,33.92
2023-04-27T16:00:24.938Z,35.37
2023-04-27T16:02:59.372Z,34.79
2023-04-27T16:05:28.306Z,35.09
2023-04-27T16:08:02.083Z,34.52
2023-04-27T16:10:28.989Z,34.97
2023-04-27T16:13:02.092Z,33.87
2023-04-27T16:15:40.079Z,33.77
2023-04-27T16:36:44.977Z,34.65
2023-04-27T16:39:18.028Z,36.00
2023-04-27T16:41:52.093Z,34.72
2023-04-27T16:44:24.958Z,36.12
2023-04-27T16:46:58.984Z,35.89
2023-04-27T16:49:25.917Z,35.33
2023-04-27T16:52:00.963Z,35.68
2023-04-27T16:54:27.835Z,36.60
2023-04-27T16:57:00.966Z,36.13
2023-04-27T16:59:34.022Z,37.10
2023-04-27T17:02:22.972Z,37.22
2023-04-27T17:04:53.981Z,37.01
2023-04-27T17:07:28.160Z,36.84
2023-04-27T17:10:03.071Z,37.36
2023-04-27T17:12:41.521Z,37.36
2023-04-27T17:15:16.720Z,37.96
2023-04-27T17:17:59.171Z,38.22
2023-04-27T17:20:33.023Z,38.96
2023-04-27T17:23:06.082Z,39.71
2023-04-27T17:25:36.357Z,39.44
2023-04-27T17:28:11.097Z,39.43
2023-04-27T17:30:38.620Z,40.46
2023-04-27T17:33:13.133Z,40.30
2023-04-27T17:35:49.511Z,40.42
2023-04-27T17:38:23.000Z,39.76
2023-04-27T17:40:52.994Z,40.82
2023-04-27T17:43:19.897Z,40.12
2023-04-27T17:45:53.188Z,40.55
2023-04-27T17:48:20.419Z,40.42
2023-04-27T17:50:54.319Z,40.81
2023-04-27T17:53:21.224Z,41.09
2023-04-27T17:58:23.618Z,41.85
2023-04-27T18:01:05.191Z,41.76
2023-04-27T18:03:32.146Z,41.33
2023-04-27T18:06:06.097Z,41.56
2023-04-27T18:08:40.539Z,42.33
2023-04-27T18:11:07.453Z,42.28
2023-04-27T18:13:43.450Z,42.55
2023-04-27T18:16:17.155Z,43.40
2023-04-27T18:18:50.056Z,43.77
2023-04-27T18:21:17.071Z,42.89
2023-04-27T18:23:51.051Z,43.80
2023-04-27T18:26:25.081Z,43.90
2023-04-27T18:28:59.057Z,44.25
2023-04-27T18:31:25.897Z,43.76
2023-04-27T18:33:59.152Z,43.12
2023-04-27T18:36:27.878Z,44.77
2023-04-27T18:39:03.081Z,43.96
2023-04-27T18:41:30.327Z,44.55
2023-04-27T18:44:11.100Z,45.01
2023-04-27T18:46:42.117Z,44.73
2023-04-27T18:49:15.152Z,45.63
2023-04-27T18:51:43.330Z,46.26
2023-04-27T18:54:17.010Z,45.35
2023-04-27T18:56:50.094Z,46.48
2023-04-27T18:59:30.793Z,46.56
2023-04-27T19:02:04.208Z,46.13
2023-04-27T19:04:31.131Z,46.72
2023-04-27T19:07:05.029Z,46.39
2023-04-27T19:09:32.065Z,47.47
2023-04-27T19:12:06.066Z,47.82
2023-04-27T19:14:56.149Z,47.64
2023-04-27T19:17:29.127Z,47.73
2023-04-27T19:19:56.183Z,47.83
2023-04-27T19:22:29.094Z,47.86
2023-04-27T19:24:56.232Z,47.94
2023-04-27T19:27:29.026Z,47.86
2023-04-27T19:29:57.783Z,48.10
2023-04-27T19:32:35.047Z,48.81
2023-04-27T19:35:02.694Z,49.28
2023-04-27T19:37:36.079Z,48.97
2023-04-27T19:40:03.036Z,48.68
2023-04-27T19:42:43.260Z,48.99
2023-04-27T19:45:20.351Z,49.80
2023-04-27T19:47:49.206Z,49.26
2023-04-27T19:50:32.064Z,49.37
2023-04-27T19:52:58.895Z,48.81
2023-04-27T19:55:35.300Z,49.05
2023-04-27T19:58:02.032Z,50.02
2023-04-27T20:00:35.090Z,49.94
2023-04-27T20:03:09.239Z,50.15
2023-04-27T20:05:44.322Z,49.53
2023-04-27T20:08:11.917Z,50.86
2023-04-27T20:10:48.109Z,49.82
2023-04-27T20:13:21.075Z,50.09
2023-04-27T20:15:54.455Z,51.29
2023-04-27T20:18:28.217Z,50.15
2023-04-27T20:21:11.495Z,50.54
2023-04-27T20:23:55.261Z,49.90
2023-04-27T20:26:22.723Z,50.88
2023-04-27T20:28:56.218Z,51.30
2023-04-27T20:31:23.265Z,50.72
2023-04-27T20:33:57.160Z,50.82
2023-04-27T20:36:25.047Z,50.39
2023-04-27T20:38:59.256Z,51.25
2023-04-27T20:41:26.187Z,51.31
2023-04-27T20:44:00.106Z,51.18
2023-04-27T20:46:33.584Z,51.13
2023-04-27T20:49:07.193Z,51.01
2023-04-27T20:51:35.724Z,51.31
2023-04-27T20:54:09.125Z,50.70
2023-04-27T20:56:46.251Z,50.49
2023-04-27T20:59:13.091Z,50.57
2023-04-27T21:01:59.972Z,51.37
2023-04-27T21:04:28.169Z,51.65
2023-04-27T21:07:01.185Z,52.26
2023-04-27T21:09:28.164Z,51.40
2023-04-27T21:12:01.118Z,51.05
2023-04-27T21:14:36.245Z,51.47
2023-04-27T21:17:16.290Z,51.21
2023-04-27T21:19:46.273Z,52.17
2023-04-27T21:22:12.958Z,51.77
2023-04-27T21:24:48.088Z,51.90
2023-04-27T21:27:21.156Z,51.25
2023-04-27T21:29:54.093Z,51.75
2023-04-27T21:32:20.943Z,52.11
2023-04-27T21:34:54.160Z,52.10
2023-04-27T21:37:27.469Z,52.07
2023-04-27T21:40:01.139Z,51.37
2023-04-27T21:42:27.958Z,51.21
2023-04-27T21:45:02.191Z,51.62
2023-04-27T21:47:28.985Z,51.74
2023-04-27T21:50:02.254Z,51.45
2023-04-27T21:52:29.052Z,51.62
2023-04-27T21:55:02.186Z,51.98
2023-04-27T21:57:29.108Z,51.83
2023-04-27T22:00:02.340Z,52.09
2023-04-27T22:02:29.924Z,52.00
2023-04-27T22:05:04.240Z,51.97
2023-04-27T22:07:32.815Z,51.50
2023-04-27T22:10:06.266Z,52.03
2023-04-27T22:12:40.127Z,51.54
2023-04-27T22:15:14.493Z,52.03
2023-04-27T22:17:49.225Z,51.88
2023-04-27T22:20:16.418Z,51.78
2023-04-27T22:22:53.138Z,52.27
2023-04-27T22:25:27.085Z,52.09
2023-04-27T22:28:07.211Z,52.00
2023-04-27T22:30:39.540Z,51.96
2023-04-27T22:33:13.356Z,51.65
2023-04-27T22:35:44.262Z,51.78
2023-04-27T22:38:18.240Z,52.35
2023-04-27T22:40:45.328Z,52.38
2023-04-27T22:43:19.205Z,53.03
2023-04-27T22:45:46.150Z,52.08
2023-04-27T22:48:20.148Z,52.03
2023-04-27T22:53:23.059Z,52.41
2023-04-27T22:58:35.279Z,54.25
2023-04-27T23:01:09.270Z,54.00
2023-04-27T23:03:36.703Z,54.23
2023-04-27T23:06:14.314Z,54.16
2023-04-27T23:08:45.941Z,54.71
2023-04-27T23:11:20.207Z,54.60
2023-04-27T23:13:48.492Z,54.75
2023-04-27T23:16:30.418Z,54.70
2023-04-27T23:19:10.456Z,54.33
2023-04-27T23:21:45.187Z,54.84
2023-04-27T23:24:14.839Z,54.86
2023-04-27T23:26:50.181Z,55.29
2023-04-27T23:29:16.973Z,55.74
2023-04-27T23:31:50.227Z,55.57
2023-04-27T23:34:17.283Z,55.88
2023-04-27T23:36:44.769Z,56.38
2023-04-27T23:39:18.315Z,56.35
2023-04-27T23:41:53.317Z,56.71
2023-04-27T23:44:26.332Z,56.89
2023-04-27T23:47:01.840Z,57.39
2023-04-27T23:49:35.188Z,57.07
2023-04-27T23:52:01.962Z,57.44
2023-04-27T23:54:39.282Z,57.44
2023-04-27T23:57:06.787Z,57.63
2023-04-27T23:59:42.224Z,57.80
